sensor_id;sensor_type;location;lat;lon;timestamp;temperature;humidity
25280;DHT22;13225;47.804;12.116;2024-03-02T00:00:51;6.70;99.90
25280;DHT22;13225;47.804;12.116;2024-03-02T00:03:18;6.60;99.90
25280;DHT22;13225;47.804;12.116;2024-03-02T00:05:44;6.60;99.90
25280;DHT22;13225;47.804;12.116;2024-03-02T00:08:24;6.60;99.90
25280;DHT22;13225;47.804;12.116;2024-03-02T00:10:57;6.70;99.90
25280;DHT22;13225;47.804;12.116;2024-03-02T00:13:24;6.70;99.90
25280;DHT22;13225;47.804;12.116;2024-03-02T00:15:54;6.70;99.90
25280;DHT22;13225;47.804;12.116;2024-03-02T00:18:25;6.70;99.90
25280;DHT22;13225;47.804;12.116;2024-03-02T00:20:55;6.60;99.90
25280;DHT22;13225;47.804;12.116;2024-03-02T00:23:22;6.60;99.90
25280;DHT22;13225;47.804;12.116;2024-03-02T00:25:52;6.50;99.90
25280;DHT22;13225;47.804;12.116;2024-03-02T00:28:25;6.50;99.90
25280;DHT22;13225;47.804;12.116;2024-03-02T00:31:08;6.40;99.90
25280;DHT22;13225;47.804;12.116;2024-03-02T00:33:36;6.40;99.90
25280;DHT22;13225;47.804;12.116;2024-03-02T00:36:06;6.40;99.90
25280;DHT22;13225;47.804;12.116;2024-03-02T00:38:33;6.40;99.90
25280;DHT22;13225;47.804;12.116;2024-03-02T00:41:06;6.40;99.90
25280;DHT22;13225;47.804;12.116;2024-03-02T00:43:45;6.40;99.90
25280;DHT22;13225;47.804;12.116;2024-03-02T00:46:12;6.40;99.90
25280;DHT22;13225;47.804;12.116;2024-03-02T00:48:48;6.40;99.90
25280;DHT22;13225;47.804;12.116;2024-03-02T00:51:14;6.40;99.90
25280;DHT22;13225;47.804;12.116;2024-03-02T00:53:39;6.40;99.90
25280;DHT22;13225;47.804;12.116;2024-03-02T00:56:09;6.40;99.90
25280;DHT22;13225;47.804;12.116;2024-03-02T00:58:36;6.30;99.90
25280;DHT22;13225;47.804;12.116;2024-03-02T01:01:02;6.30;99.90
25280;DHT22;13225;47.804;12.116;2024-03-02T01:03:27;6.20;99.90
25280;DHT22;13225;47.804;12.116;2024-03-02T01:05:53;6.20;99.90
25280;DHT22;13225;47.804;12.116;2024-03-02T01:08:18;6.10;99.90
25280;DHT22;13225;47.804;12.116;2024-03-02T01:10:44;6.10;99.90
25280;DHT22;13225;47.804;12.116;2024-03-02T01:13:10;5.90;99.90
25280;DHT22;13225;47.804;12.116;2024-03-02T01:15:35;5.90;99.90
25280;DHT22;13225;47.804;12.116;2024-03-02T01:18:01;5.80;99.90
25280;DHT22;13225;47.804;12.116;2024-03-02T01:20:27;5.70;99.90
25280;DHT22;13225;47.804;12.116;2024-03-02T01:22:52;5.60;99.90
25280;DHT22;13225;47.804;12.116;2024-03-02T01:25:18;5.50;99.90
25280;DHT22;13225;47.804;12.116;2024-03-02T01:27:44;5.50;99.90
25280;DHT22;13225;47.804;12.116;2024-03-02T01:30:10;5.40;99.90
25280;DHT22;13225;47.804;12.116;2024-03-02T01:32:38;5.40;99.90
25280;DHT22;13225;47.804;12.116;2024-03-02T01:35:04;5.40;99.90
25280;DHT22;13225;47.804;12.116;2024-03-02T01:37:30;5.40;99.90
25280;DHT22;13225;47.804;12.116;2024-03-02T01:39:55;5.40;99.90
25280;DHT22;13225;47.804;12.116;2024-03-02T01:42:21;5.50;99.90
25280;DHT22;13225;47.804;12.116;2024-03-02T01:44:47;5.50;99.90
25280;DHT22;13225;47.804;12.116;2024-03-02T01:47:13;5.50;99.90
25280;DHT22;13225;47.804;12.116;2024-03-02T01:49:38;5.50;99.90
25280;DHT22;13225;47.804;12.116;2024-03-02T01:52:06;5.50;99.90
25280;DHT22;13225;47.804;12.116;2024-03-02T01:54:32;5.40;99.90
25280;DHT22;13225;47.804;12.116;2024-03-02T01:56:58;5.40;99.90
25280;DHT22;13225;47.804;12.116;2024-03-02T01:59:24;5.40;99.90
25280;DHT22;13225;47.804;12.116;2024-03-02T02:01:49;5.30;99.90
25280;DHT22;13225;47.804;12.116;2024-03-02T02:04:15;5.30;99.90
25280;DHT22;13225;47.804;12.116;2024-03-02T02:06:40;5.30;99.90
25280;DHT22;13225;47.804;12.116;2024-03-02T02:09:06;5.30;99.90
25280;DHT22;13225;47.804;12.116;2024-03-02T02:11:34;5.20;99.90
25280;DHT22;13225;47.804;12.116;2024-03-02T02:13:59;5.20;99.90
25280;DHT22;13225;47.804;12.116;2024-03-02T02:16:25;5.10;99.90
25280;DHT22;13225;47.804;12.116;2024-03-02T02:18:51;5.10;99.90
25280;DHT22;13225;47.804;12.116;2024-03-02T02:21:16;5.00;99.90
25280;DHT22;13225;47.804;12.116;2024-03-02T02:23:42;5.00;99.90
25280;DHT22;13225;47.804;12.116;2024-03-02T02:26:11;5.00;99.90
25280;DHT22;13225;47.804;12.116;2024-03-02T02:28:37;5.20;99.90
25280;DHT22;13225;47.804;12.116;2024-03-02T02:31:03;5.10;99.90
25280;DHT22;13225;47.804;12.116;2024-03-02T02:33:29;5.20;99.90
25280;DHT22;13225;47.804;12.116;2024-03-02T02:35:54;5.20;99.90
25280;DHT22;13225;47.804;12.116;2024-03-02T02:38:20;5.20;99.90
25280;DHT22;13225;47.804;12.116;2024-03-02T02:40:46;5.10;99.90
25280;DHT22;13225;47.804;12.116;2024-03-02T02:43:11;5.10;99.90
25280;DHT22;13225;47.804;12.116;2024-03-02T02:45:37;4.90;99.90
25280;DHT22;13225;47.804;12.116;2024-03-02T02:48:03;4.70;99.90
25280;DHT22;13225;47.804;12.116;2024-03-02T02:50:28;4.50;99.90
25280;DHT22;13225;47.804;12.116;2024-03-02T02:52:54;4.50;99.90
25280;DHT22;13225;47.804;12.116;2024-03-02T02:55:20;4.50;99.90
25280;DHT22;13225;47.804;12.116;2024-03-02T02:57:45;4.60;99.90
25280;DHT22;13225;47.804;12.116;2024-03-02T03:00:14;4.50;99.90
25280;DHT22;13225;47.804;12.116;2024-03-02T03:02:43;4.70;99.90
25280;DHT22;13225;47.804;12.116;2024-03-02T03:05:10;4.80;99.90
25280;DHT22;13225;47.804;12.116;2024-03-02T03:07:36;4.80;99.90
25280;DHT22;13225;47.804;12.116;2024-03-02T03:10:03;4.90;99.90
25280;DHT22;13225;47.804;12.116;2024-03-02T03:12:30;4.90;99.90
25280;DHT22;13225;47.804;12.116;2024-03-02T03:14:56;4.80;99.90
25280;DHT22;13225;47.804;12.116;2024-03-02T03:17:22;4.90;99.90
25280;DHT22;13225;47.804;12.116;2024-03-02T03:19:49;4.80;99.90
25280;DHT22;13225;47.804;12.116;2024-03-02T03:22:14;4.80;99.90
25280;DHT22;13225;47.804;12.116;2024-03-02T03:24:40;4.70;99.90
25280;DHT22;13225;47.804;12.116;2024-03-02T03:27:06;4.70;99.90
25280;DHT22;13225;47.804;12.116;2024-03-02T03:29:31;4.70;99.90
25280;DHT22;13225;47.804;12.116;2024-03-02T03:31:57;4.70;99.90
25280;DHT22;13225;47.804;12.116;2024-03-02T03:34:22;4.50;99.90
25280;DHT22;13225;47.804;12.116;2024-03-02T03:36:48;4.50;99.90
25280;DHT22;13225;47.804;12.116;2024-03-02T03:39:13;4.40;99.90
25280;DHT22;13225;47.804;12.116;2024-03-02T03:41:40;4.40;99.90
25280;DHT22;13225;47.804;12.116;2024-03-02T03:44:06;4.30;99.90
25280;DHT22;13225;47.804;12.116;2024-03-02T03:46:31;4.20;99.90
25280;DHT22;13225;47.804;12.116;2024-03-02T03:48:57;4.20;99.90
25280;DHT22;13225;47.804;12.116;2024-03-02T03:51:22;4.10;99.90
25280;DHT22;13225;47.804;12.116;2024-03-02T03:53:48;4.10;99.90
25280;DHT22;13225;47.804;12.116;2024-03-02T03:56:14;4.10;99.90
25280;DHT22;13225;47.804;12.116;2024-03-02T03:58:39;4.10;99.90
25280;DHT22;13225;47.804;12.116;2024-03-02T04:01:05;4.00;99.90
25280;DHT22;13225;47.804;12.116;2024-03-02T04:03:30;4.00;99.90
25280;DHT22;13225;47.804;12.116;2024-03-02T04:05:56;3.90;99.90
25280;DHT22;13225;47.804;12.116;2024-03-02T04:08:22;3.90;99.90
25280;DHT22;13225;47.804;12.116;2024-03-02T04:10:48;3.80;99.90
25280;DHT22;13225;47.804;12.116;2024-03-02T04:13:13;3.80;99.90
25280;DHT22;13225;47.804;12.116;2024-03-02T04:15:39;3.80;99.90
25280;DHT22;13225;47.804;12.116;2024-03-02T04:18:06;3.90;99.90
25280;DHT22;13225;47.804;12.116;2024-03-02T04:20:31;3.90;99.90
25280;DHT22;13225;47.804;12.116;2024-03-02T04:22:57;3.80;99.90
25280;DHT22;13225;47.804;12.116;2024-03-02T04:25:23;3.80;99.90
25280;DHT22;13225;47.804;12.116;2024-03-02T04:27:48;3.80;99.90
25280;DHT22;13225;47.804;12.116;2024-03-02T04:30:14;3.80;99.90
25280;DHT22;13225;47.804;12.116;2024-03-02T04:32:39;3.80;99.90
25280;DHT22;13225;47.804;12.116;2024-03-02T04:35:05;3.80;99.90
25280;DHT22;13225;47.804;12.116;2024-03-02T04:37:34;3.70;99.90
25280;DHT22;13225;47.804;12.116;2024-03-02T04:40:00;3.80;99.90
25280;DHT22;13225;47.804;12.116;2024-03-02T04:44:51;3.70;99.90
25280;DHT22;13225;47.804;12.116;2024-03-02T04:47:17;3.70;99.90
25280;DHT22;13225;47.804;12.116;2024-03-02T04:49:42;3.70;99.90
25280;DHT22;13225;47.804;12.116;2024-03-02T04:52:09;3.70;99.90
25280;DHT22;13225;47.804;12.116;2024-03-02T04:54:34;3.70;99.90
25280;DHT22;13225;47.804;12.116;2024-03-02T04:57:20;3.70;99.90
25280;DHT22;13225;47.804;12.116;2024-03-02T04:59:45;3.80;99.90
25280;DHT22;13225;47.804;12.116;2024-03-02T05:02:11;3.80;99.90
25280;DHT22;13225;47.804;12.116;2024-03-02T05:04:39;3.80;99.90
25280;DHT22;13225;47.804;12.116;2024-03-02T05:07:05;3.80;99.90
25280;DHT22;13225;47.804;12.116;2024-03-02T05:09:31;3.70;99.90
25280;DHT22;13225;47.804;12.116;2024-03-02T05:11:56;3.80;99.90
25280;DHT22;13225;47.804;12.116;2024-03-02T05:14:42;3.70;99.90
25280;DHT22;13225;47.804;12.116;2024-03-02T05:17:08;3.70;99.90
25280;DHT22;13225;47.804;12.116;2024-03-02T05:19:33;3.70;99.90
25280;DHT22;13225;47.804;12.116;2024-03-02T05:21:59;3.70;99.90
25280;DHT22;13225;47.804;12.116;2024-03-02T05:24:24;3.70;99.90
25280;DHT22;13225;47.804;12.116;2024-03-02T05:26:52;3.70;99.90
25280;DHT22;13225;47.804;12.116;2024-03-02T05:29:18;3.70;99.90
25280;DHT22;13225;47.804;12.116;2024-03-02T05:31:44;3.70;99.90
25280;DHT22;13225;47.804;12.116;2024-03-02T05:34:09;3.70;99.90
25280;DHT22;13225;47.804;12.116;2024-03-02T05:36:35;3.80;99.90
25280;DHT22;13225;47.804;12.116;2024-03-02T05:39:01;3.90;99.90
25280;DHT22;13225;47.804;12.116;2024-03-02T05:41:27;3.90;99.90
25280;DHT22;13225;47.804;12.116;2024-03-02T05:43:53;4.00;99.90
25280;DHT22;13225;47.804;12.116;2024-03-02T05:46:18;4.00;99.90
25280;DHT22;13225;47.804;12.116;2024-03-02T05:48:44;4.10;99.90
25280;DHT22;13225;47.804;12.116;2024-03-02T05:51:10;4.10;99.90
25280;DHT22;13225;47.804;12.116;2024-03-02T05:53:35;4.10;99.90
25280;DHT22;13225;47.804;12.116;2024-03-02T05:56:04;4.10;99.90
25280;DHT22;13225;47.804;12.116;2024-03-02T05:58:30;4.20;99.90
25280;DHT22;13225;47.804;12.116;2024-03-02T06:01:14;4.20;99.90
25280;DHT22;13225;47.804;12.116;2024-03-02T06:03:39;4.20;99.90
25280;DHT22;13225;47.804;12.116;2024-03-02T06:06:05;4.30;99.90
25280;DHT22;13225;47.804;12.116;2024-03-02T06:08:31;4.30;99.90
25280;DHT22;13225;47.804;12.116;2024-03-02T06:10:56;4.40;99.90
25280;DHT22;13225;47.804;12.116;2024-03-02T06:13:22;4.40;99.90
25280;DHT22;13225;47.804;12.116;2024-03-02T06:15:48;4.50;99.90
25280;DHT22;13225;47.804;12.116;2024-03-02T06:18:14;4.70;99.90
25280;DHT22;13225;47.804;12.116;2024-03-02T06:20:39;4.70;99.90
25280;DHT22;13225;47.804;12.116;2024-03-02T06:23:05;4.70;99.90
25280;DHT22;13225;47.804;12.116;2024-03-02T06:25:31;4.80;99.90
25280;DHT22;13225;47.804;12.116;2024-03-02T06:27:56;4.90;99.90
25280;DHT22;13225;47.804;12.116;2024-03-02T06:30:22;5.10;99.90
25280;DHT22;13225;47.804;12.116;2024-03-02T06:32:47;5.20;99.90
25280;DHT22;13225;47.804;12.116;2024-03-02T06:35:13;5.20;99.90
25280;DHT22;13225;47.804;12.116;2024-03-02T06:37:39;5.30;99.90
25280;DHT22;13225;47.804;12.116;2024-03-02T06:40:08;5.40;99.90
25280;DHT22;13225;47.804;12.116;2024-03-02T06:42:34;5.40;99.90
25280;DHT22;13225;47.804;12.116;2024-03-02T06:45:00;5.50;99.90
25280;DHT22;13225;47.804;12.116;2024-03-02T06:47:25;5.70;99.90
25280;DHT22;13225;47.804;12.116;2024-03-02T06:49:51;5.80;99.90
25280;DHT22;13225;47.804;12.116;2024-03-02T06:52:17;6.00;99.90
25280;DHT22;13225;47.804;12.116;2024-03-02T06:54:42;6.10;99.90
25280;DHT22;13225;47.804;12.116;2024-03-02T06:57:08;6.10;99.90
25280;DHT22;13225;47.804;12.116;2024-03-02T06:59:33;6.30;99.90
25280;DHT22;13225;47.804;12.116;2024-03-02T07:01:59;6.40;99.90
25280;DHT22;13225;47.804;12.116;2024-03-02T07:04:25;6.50;99.90
25280;DHT22;13225;47.804;12.116;2024-03-02T07:06:50;6.60;99.90
25280;DHT22;13225;47.804;12.116;2024-03-02T07:09:16;6.70;99.90
25280;DHT22;13225;47.804;12.116;2024-03-02T07:11:42;6.80;99.90
25280;DHT22;13225;47.804;12.116;2024-03-02T07:14:08;6.80;99.90
25280;DHT22;13225;47.804;12.116;2024-03-02T07:16:36;6.90;99.90
25280;DHT22;13225;47.804;12.116;2024-03-02T07:19:03;7.00;99.90
25280;DHT22;13225;47.804;12.116;2024-03-02T07:21:29;7.00;99.90
25280;DHT22;13225;47.804;12.116;2024-03-02T07:23:54;7.00;99.90
25280;DHT22;13225;47.804;12.116;2024-03-02T07:26:20;7.00;99.90
25280;DHT22;13225;47.804;12.116;2024-03-02T07:28:46;7.10;99.90
25280;DHT22;13225;47.804;12.116;2024-03-02T07:31:13;7.00;99.90
25280;DHT22;13225;47.804;12.116;2024-03-02T07:33:39;7.00;99.90
25280;DHT22;13225;47.804;12.116;2024-03-02T07:36:05;7.00;99.90
25280;DHT22;13225;47.804;12.116;2024-03-02T07:38:31;7.00;99.90
25280;DHT22;13225;47.804;12.116;2024-03-02T07:40:58;7.00;99.90
25280;DHT22;13225;47.804;12.116;2024-03-02T07:43:24;7.00;99.90
25280;DHT22;13225;47.804;12.116;2024-03-02T07:45:50;7.20;99.90
25280;DHT22;13225;47.804;12.116;2024-03-02T07:48:15;7.20;99.90
25280;DHT22;13225;47.804;12.116;2024-03-02T07:50:41;7.20;99.90
25280;DHT22;13225;47.804;12.116;2024-03-02T07:53:08;7.30;99.90
25280;DHT22;13225;47.804;12.116;2024-03-02T07:55:34;7.30;99.90
25280;DHT22;13225;47.804;12.116;2024-03-02T07:58:00;7.40;99.90
25280;DHT22;13225;47.804;12.116;2024-03-02T08:00:26;7.60;99.90
25280;DHT22;13225;47.804;12.116;2024-03-02T08:02:53;7.60;99.90
25280;DHT22;13225;47.804;12.116;2024-03-02T08:05:19;7.60;99.90
25280;DHT22;13225;47.804;12.116;2024-03-02T08:07:45;7.60;99.90
25280;DHT22;13225;47.804;12.116;2024-03-02T08:10:11;7.70;99.90
25280;DHT22;13225;47.804;12.116;2024-03-02T08:12:37;7.60;99.90
25280;DHT22;13225;47.804;12.116;2024-03-02T08:15:03;7.70;99.90
25280;DHT22;13225;47.804;12.116;2024-03-02T08:17:29;7.80;99.90
25280;DHT22;13225;47.804;12.116;2024-03-02T08:19:55;7.80;99.90
25280;DHT22;13225;47.804;12.116;2024-03-02T08:22:21;7.90;99.90
25280;DHT22;13225;47.804;12.116;2024-03-02T08:24:47;8.10;99.90
25280;DHT22;13225;47.804;12.116;2024-03-02T08:27:13;8.20;99.90
25280;DHT22;13225;47.804;12.116;2024-03-02T08:29:38;8.40;99.90
25280;DHT22;13225;47.804;12.116;2024-03-02T08:32:05;8.60;99.90
25280;DHT22;13225;47.804;12.116;2024-03-02T08:34:31;8.70;99.90
25280;DHT22;13225;47.804;12.116;2024-03-02T08:36:56;8.70;99.90
25280;DHT22;13225;47.804;12.116;2024-03-02T08:39:22;8.70;99.90
25280;DHT22;13225;47.804;12.116;2024-03-02T08:41:48;8.70;99.90
25280;DHT22;13225;47.804;12.116;2024-03-02T08:44:14;8.90;99.90
25280;DHT22;13225;47.804;12.116;2024-03-02T08:46:40;9.00;99.90
25280;DHT22;13225;47.804;12.116;2024-03-02T08:49:06;9.10;99.90
25280;DHT22;13225;47.804;12.116;2024-03-02T08:51:32;9.20;99.90
25280;DHT22;13225;47.804;12.116;2024-03-02T08:53:58;9.20;99.90
25280;DHT22;13225;47.804;12.116;2024-03-02T08:56:26;9.20;99.90
25280;DHT22;13225;47.804;12.116;2024-03-02T08:58:52;9.30;99.90
25280;DHT22;13225;47.804;12.116;2024-03-02T09:01:18;9.30;99.90
25280;DHT22;13225;47.804;12.116;2024-03-02T09:03:45;9.40;99.90
25280;DHT22;13225;47.804;12.116;2024-03-02T09:06:11;9.50;99.90
25280;DHT22;13225;47.804;12.116;2024-03-02T09:08:38;9.60;99.90
25280;DHT22;13225;47.804;12.116;2024-03-02T09:11:04;9.80;99.90
25280;DHT22;13225;47.804;12.116;2024-03-02T09:13:31;9.80;99.90
25280;DHT22;13225;47.804;12.116;2024-03-02T09:15:56;9.80;99.90
25280;DHT22;13225;47.804;12.116;2024-03-02T09:18:22;9.80;99.90
25280;DHT22;13225;47.804;12.116;2024-03-02T09:20:48;9.90;99.90
25280;DHT22;13225;47.804;12.116;2024-03-02T09:23:13;10.00;99.90
25280;DHT22;13225;47.804;12.116;2024-03-02T09:25:39;10.10;99.90
25280;DHT22;13225;47.804;12.116;2024-03-02T09:28:05;10.20;99.90
25280;DHT22;13225;47.804;12.116;2024-03-02T09:30:30;10.40;99.90
25280;DHT22;13225;47.804;12.116;2024-03-02T09:32:56;10.50;99.90
25280;DHT22;13225;47.804;12.116;2024-03-02T09:35:22;10.60;99.90
25280;DHT22;13225;47.804;12.116;2024-03-02T09:37:47;10.70;99.90
25280;DHT22;13225;47.804;12.116;2024-03-02T09:40:13;10.70;99.90
25280;DHT22;13225;47.804;12.116;2024-03-02T09:42:40;10.70;99.90
25280;DHT22;13225;47.804;12.116;2024-03-02T09:45:06;10.70;99.90
25280;DHT22;13225;47.804;12.116;2024-03-02T09:47:32;10.70;99.90
25280;DHT22;13225;47.804;12.116;2024-03-02T09:49:58;10.80;99.90
25280;DHT22;13225;47.804;12.116;2024-03-02T09:52:24;10.80;99.90
25280;DHT22;13225;47.804;12.116;2024-03-02T09:54:50;10.80;99.90
25280;DHT22;13225;47.804;12.116;2024-03-02T09:57:16;10.80;99.90
25280;DHT22;13225;47.804;12.116;2024-03-02T09:59:42;10.70;99.90
25280;DHT22;13225;47.804;12.116;2024-03-02T10:02:07;10.60;99.90
25280;DHT22;13225;47.804;12.116;2024-03-02T10:04:34;10.80;99.90
25280;DHT22;13225;47.804;12.116;2024-03-02T10:07:17;10.80;99.90
25280;DHT22;13225;47.804;12.116;2024-03-02T10:09:48;11.00;99.90
25280;DHT22;13225;47.804;12.116;2024-03-02T10:12:15;11.10;99.90
25280;DHT22;13225;47.804;12.116;2024-03-02T10:14:42;11.10;99.90
25280;DHT22;13225;47.804;12.116;2024-03-02T10:17:12;11.00;99.90
25280;DHT22;13225;47.804;12.116;2024-03-02T10:19:39;11.10;99.90
25280;DHT22;13225;47.804;12.116;2024-03-02T10:22:06;11.10;99.90
25280;DHT22;13225;47.804;12.116;2024-03-02T10:24:40;11.20;99.90
25280;DHT22;13225;47.804;12.116;2024-03-02T10:27:08;11.20;99.90
25280;DHT22;13225;47.804;12.116;2024-03-02T10:29:37;11.30;99.90
25280;DHT22;13225;47.804;12.116;2024-03-02T10:32:04;11.30;99.90
25280;DHT22;13225;47.804;12.116;2024-03-02T10:34:31;11.40;99.90
25280;DHT22;13225;47.804;12.116;2024-03-02T10:36:56;11.40;99.90
25280;DHT22;13225;47.804;12.116;2024-03-02T10:39:24;11.30;99.90
25280;DHT22;13225;47.804;12.116;2024-03-02T10:41:52;11.50;99.90
25280;DHT22;13225;47.804;12.116;2024-03-02T10:44:19;11.60;99.90
25280;DHT22;13225;47.804;12.116;2024-03-02T10:46:45;11.70;99.90
25280;DHT22;13225;47.804;12.116;2024-03-02T10:49:11;11.80;99.90
25280;DHT22;13225;47.804;12.116;2024-03-02T10:51:37;11.90;99.90
25280;DHT22;13225;47.804;12.116;2024-03-02T10:54:03;11.70;99.90
25280;DHT22;13225;47.804;12.116;2024-03-02T10:56:31;11.90;99.90
25280;DHT22;13225;47.804;12.116;2024-03-02T10:59:14;12.10;99.90
25280;DHT22;13225;47.804;12.116;2024-03-02T11:01:43;12.30;99.90
25280;DHT22;13225;47.804;12.116;2024-03-02T11:04:13;12.30;99.90
25280;DHT22;13225;47.804;12.116;2024-03-02T11:06:44;12.40;99.90
25280;DHT22;13225;47.804;12.116;2024-03-02T11:09:11;12.40;99.90
25280;DHT22;13225;47.804;12.116;2024-03-02T11:11:43;12.30;99.90
25280;DHT22;13225;47.804;12.116;2024-03-02T11:14:14;12.20;99.90
25280;DHT22;13225;47.804;12.116;2024-03-02T11:16:42;12.30;99.90
25280;DHT22;13225;47.804;12.116;2024-03-02T11:19:13;12.40;99.90
25280;DHT22;13225;47.804;12.116;2024-03-02T11:21:39;12.60;99.90
25280;DHT22;13225;47.804;12.116;2024-03-02T11:27:02;12.90;99.90
25280;DHT22;13225;47.804;12.116;2024-03-02T11:32:12;12.80;99.90
25280;DHT22;13225;47.804;12.116;2024-03-02T11:34:41;12.60;99.90
25280;DHT22;13225;47.804;12.116;2024-03-02T11:37:11;12.80;99.90
25280;DHT22;13225;47.804;12.116;2024-03-02T11:39:38;12.80;99.90
25280;DHT22;13225;47.804;12.116;2024-03-02T11:42:07;12.80;99.90
25280;DHT22;13225;47.804;12.116;2024-03-02T11:44:37;13.00;99.90
25280;DHT22;13225;47.804;12.116;2024-03-02T11:47:08;13.20;99.90
25280;DHT22;13225;47.804;12.116;2024-03-02T11:52:07;13.30;99.90
25280;DHT22;13225;47.804;12.116;2024-03-02T11:54:34;13.30;99.90
25280;DHT22;13225;47.804;12.116;2024-03-02T11:57:02;13.40;99.90
25280;DHT22;13225;47.804;12.116;2024-03-02T11:59:29;13.40;99.90
25280;DHT22;13225;47.804;12.116;2024-03-02T12:01:54;13.40;99.90
25280;DHT22;13225;47.804;12.116;2024-03-02T12:04:21;13.40;99.90
25280;DHT22;13225;47.804;12.116;2024-03-02T12:06:54;13.20;99.90
25280;DHT22;13225;47.804;12.116;2024-03-02T12:09:21;13.20;99.90
25280;DHT22;13225;47.804;12.116;2024-03-02T12:11:47;13.10;99.90
25280;DHT22;13225;47.804;12.116;2024-03-02T12:14:12;13.20;99.90
25280;DHT22;13225;47.804;12.116;2024-03-02T12:16:38;13.10;99.90
25280;DHT22;13225;47.804;12.116;2024-03-02T12:19:08;13.10;99.90
25280;DHT22;13225;47.804;12.116;2024-03-02T12:21:33;13.00;99.90
25280;DHT22;13225;47.804;12.116;2024-03-02T12:24:00;13.40;99.90
25280;DHT22;13225;47.804;12.116;2024-03-02T12:26:26;13.80;99.90
25280;DHT22;13225;47.804;12.116;2024-03-02T12:28:52;14.00;99.90
25280;DHT22;13225;47.804;12.116;2024-03-02T12:31:18;14.20;99.90
25280;DHT22;13225;47.804;12.116;2024-03-02T12:33:43;14.00;99.90
25280;DHT22;13225;47.804;12.116;2024-03-02T12:36:10;14.50;99.90
25280;DHT22;13225;47.804;12.116;2024-03-02T12:38:37;14.40;99.90
25280;DHT22;13225;47.804;12.116;2024-03-02T12:41:03;15.00;99.90
25280;DHT22;13225;47.804;12.116;2024-03-02T12:43:30;15.40;99.90
25280;DHT22;13225;47.804;12.116;2024-03-02T12:45:57;15.60;99.90
25280;DHT22;13225;47.804;12.116;2024-03-02T12:48:23;15.90;99.90
25280;DHT22;13225;47.804;12.116;2024-03-02T12:50:49;15.70;99.90
25280;DHT22;13225;47.804;12.116;2024-03-02T12:53:15;16.40;99.90
25280;DHT22;13225;47.804;12.116;2024-03-02T12:55:42;16.70;99.90
25280;DHT22;13225;47.804;12.116;2024-03-02T12:58:09;17.10;99.90
25280;DHT22;13225;47.804;12.116;2024-03-02T13:00:41;17.40;99.90
25280;DHT22;13225;47.804;12.116;2024-03-02T13:03:06;17.30;99.90
25280;DHT22;13225;47.804;12.116;2024-03-02T13:05:32;17.20;99.90
25280;DHT22;13225;47.804;12.116;2024-03-02T13:07:58;17.20;99.90
25280;DHT22;13225;47.804;12.116;2024-03-02T13:10:25;17.40;99.90
25280;DHT22;13225;47.804;12.116;2024-03-02T13:12:51;17.60;99.90
25280;DHT22;13225;47.804;12.116;2024-03-02T13:15:16;17.80;99.90
25280;DHT22;13225;47.804;12.116;2024-03-02T13:17:42;17.80;99.90
25280;DHT22;13225;47.804;12.116;2024-03-02T13:20:09;17.50;99.90
25280;DHT22;13225;47.804;12.116;2024-03-02T13:22:36;17.50;99.90
25280;DHT22;13225;47.804;12.116;2024-03-02T13:25:01;17.80;99.90
25280;DHT22;13225;47.804;12.116;2024-03-02T13:27:30;17.60;99.90
25280;DHT22;13225;47.804;12.116;2024-03-02T13:29:57;17.40;99.90
25280;DHT22;13225;47.804;12.116;2024-03-02T13:32:22;17.40;99.90
25280;DHT22;13225;47.804;12.116;2024-03-02T13:34:50;17.30;99.90
25280;DHT22;13225;47.804;12.116;2024-03-02T13:37:15;17.50;99.90
25280;DHT22;13225;47.804;12.116;2024-03-02T13:39:41;17.50;99.90
25280;DHT22;13225;47.804;12.116;2024-03-02T13:42:10;17.50;99.90
25280;DHT22;13225;47.804;12.116;2024-03-02T13:44:37;17.40;99.90
25280;DHT22;13225;47.804;12.116;2024-03-02T13:47:03;17.40;99.90
25280;DHT22;13225;47.804;12.116;2024-03-02T13:49:30;17.50;99.90
25280;DHT22;13225;47.804;12.116;2024-03-02T13:52:00;17.30;99.90
25280;DHT22;13225;47.804;12.116;2024-03-02T13:54:29;17.20;99.90
25280;DHT22;13225;47.804;12.116;2024-03-02T13:56:56;17.20;99.90
25280;DHT22;13225;47.804;12.116;2024-03-02T13:59:23;17.30;99.90
25280;DHT22;13225;47.804;12.116;2024-03-02T14:01:48;17.70;99.90
25280;DHT22;13225;47.804;12.116;2024-03-02T14:04:15;18.00;99.90
25280;DHT22;13225;47.804;12.116;2024-03-02T14:06:42;18.10;99.90
25280;DHT22;13225;47.804;12.116;2024-03-02T14:09:08;18.30;99.90
25280;DHT22;13225;47.804;12.116;2024-03-02T14:11:34;18.10;99.90
25280;DHT22;13225;47.804;12.116;2024-03-02T14:14:01;17.80;99.90
25280;DHT22;13225;47.804;12.116;2024-03-02T14:16:27;17.80;99.90
25280;DHT22;13225;47.804;12.116;2024-03-02T14:18:52;17.70;99.90
25280;DHT22;13225;47.804;12.116;2024-03-02T14:21:18;17.60;99.90
25280;DHT22;13225;47.804;12.116;2024-03-02T14:23:44;17.60;99.90
25280;DHT22;13225;47.804;12.116;2024-03-02T14:26:09;17.60;99.90
25280;DHT22;13225;47.804;12.116;2024-03-02T14:28:35;17.80;99.90
25280;DHT22;13225;47.804;12.116;2024-03-02T14:31:00;17.70;99.90
25280;DHT22;13225;47.804;12.116;2024-03-02T14:33:27;17.80;99.90
25280;DHT22;13225;47.804;12.116;2024-03-02T14:35:53;17.60;99.90
25280;DHT22;13225;47.804;12.116;2024-03-02T14:38:19;17.50;99.90
25280;DHT22;13225;47.804;12.116;2024-03-02T14:40:45;17.40;99.90
25280;DHT22;13225;47.804;12.116;2024-03-02T14:43:10;17.20;99.90
25280;DHT22;13225;47.804;12.116;2024-03-02T14:45:36;17.20;99.90
25280;DHT22;13225;47.804;12.116;2024-03-02T14:48:02;17.40;99.90
25280;DHT22;13225;47.804;12.116;2024-03-02T14:50:29;17.40;99.90
25280;DHT22;13225;47.804;12.116;2024-03-02T14:52:55;17.30;99.90
25280;DHT22;13225;47.804;12.116;2024-03-02T14:55:23;17.40;99.90
25280;DHT22;13225;47.804;12.116;2024-03-02T14:57:49;17.20;99.90
25280;DHT22;13225;47.804;12.116;2024-03-02T15:00:15;17.10;99.90
25280;DHT22;13225;47.804;12.116;2024-03-02T15:02:41;16.90;99.90
25280;DHT22;13225;47.804;12.116;2024-03-02T15:05:07;16.90;99.90
25280;DHT22;13225;47.804;12.116;2024-03-02T15:07:33;16.80;99.90
25280;DHT22;13225;47.804;12.116;2024-03-02T15:09:58;16.60;99.90
25280;DHT22;13225;47.804;12.116;2024-03-02T15:12:24;16.50;99.90
25280;DHT22;13225;47.804;12.116;2024-03-02T15:14:50;16.30;99.90
25280;DHT22;13225;47.804;12.116;2024-03-02T15:17:16;16.20;99.90
25280;DHT22;13225;47.804;12.116;2024-03-02T15:19:45;16.10;99.90
25280;DHT22;13225;47.804;12.116;2024-03-02T15:22:11;16.00;99.90
25280;DHT22;13225;47.804;12.116;2024-03-02T15:24:37;16.10;99.90
25280;DHT22;13225;47.804;12.116;2024-03-02T15:27:03;16.10;99.90
25280;DHT22;13225;47.804;12.116;2024-03-02T15:29:37;15.60;99.90
25280;DHT22;13225;47.804;12.116;2024-03-02T15:32:03;15.10;99.90